createdAt,value
2019-03-18T00:01:48.527Z,7.39
2019-03-18T00:05:56.235Z,7.31
2019-03-18T00:10:04.757Z,7.58
2019-03-18T00:14:12.374Z,7.58
2019-03-18T00:18:20.684Z,7.54
2019-03-18T00:22:28.904Z,7.55
2019-03-18T00:26:36.711Z,7.38
2019-03-18T00:30:44.843Z,7.26
2019-03-18T00:34:52.554Z,7.27
2019-03-18T00:39:00.154Z,7.26
2019-03-18T00:43:08.460Z,7.54
2019-03-18T00:47:16.187Z,7.05
2019-03-18T00:51:23.892Z,7.32
2019-03-18T00:55:31.697Z,7.16
2019-03-18T00:59:40.043Z,7.18
2019-03-18T01:03:48.943Z,7.15
2019-03-18T01:07:56.856Z,7.12
2019-03-18T01:12:04.772Z,7.18
2019-03-18T01:16:12.485Z,7.06
2019-03-18T01:20:20.280Z,6.96
2019-03-18T01:24:27.998Z,7.18
2019-03-18T01:28:35.807Z,7.23
2019-03-18T01:32:43.935Z,7.22
2019-03-18T01:36:51.629Z,7.12
2019-03-18T01:40:59.753Z,7.15
2019-03-18T01:45:07.782Z,6.87
2019-03-18T01:49:15.378Z,6.79
2019-03-18T01:53:23.592Z,6.80
2019-03-18T01:57:31.704Z,7.15
2019-03-18T02:01:40.543Z,7.20
2019-03-18T02:05:48.358Z,7.22
2019-03-18T02:09:56.073Z,7.15
2019-03-18T02:14:03.788Z,7.07
2019-03-18T02:18:12.136Z,6.78
2019-03-18T02:22:20.215Z,6.85
2019-03-18T02:26:28.112Z,6.84
2019-03-18T02:30:35.931Z,7.04
2019-03-18T02:34:43.640Z,6.97
2019-03-18T02:38:51.758Z,6.89
2019-03-18T02:42:59.720Z,6.58
2019-03-18T02:47:07.660Z,6.75
2019-03-18T02:51:15.539Z,6.72
2019-03-18T02:55:23.404Z,6.60
2019-03-18T02:59:31.127Z,6.60
2019-03-18T03:03:38.925Z,6.61
2019-03-18T03:07:47.046Z,6.59
2019-03-18T03:11:54.757Z,6.40
2019-03-18T03:16:02.667Z,6.50
2019-03-18T03:20:10.439Z,6.62
2019-03-18T03:24:19.156Z,6.57
2019-03-18T03:32:32.984Z,6.56
2019-03-18T03:36:42.224Z,6.63
2019-03-18T03:40:50.149Z,6.53
2019-03-18T03:44:57.836Z,6.82
2019-03-18T03:49:05.758Z,6.72
2019-03-18T03:53:13.979Z,6.66
2019-03-18T03:57:21.689Z,6.53
2019-03-18T04:01:29.805Z,6.65
2019-03-18T04:05:37.623Z,6.68
2019-03-18T04:09:45.416Z,6.44
2019-03-18T04:13:53.140Z,6.56
2019-03-18T04:18:01.352Z,6.64
2019-03-18T04:22:08.990Z,6.57
2019-03-18T04:26:17.072Z,6.42
2019-03-18T04:30:24.915Z,6.49
2019-03-18T04:34:32.781Z,6.57
2019-03-18T04:38:40.626Z,6.78
2019-03-18T04:42:48.221Z,6.77
2019-03-18T04:46:56.344Z,6.85
2019-03-18T04:51:04.236Z,7.11
2019-03-18T04:55:11.951Z,7.35
2019-03-18T04:59:20.076Z,7.52
2019-03-18T05:03:28.403Z,7.81
2019-03-18T05:07:35.990Z,8.16
2019-03-18T05:11:43.899Z,8.41
2019-03-18T05:15:52.030Z,8.72
2019-03-18T05:19:59.832Z,8.96
2019-03-18T05:24:07.754Z,9.13
2019-03-18T05:28:15.567Z,9.35
2019-03-18T05:32:23.273Z,9.71
2019-03-18T05:36:32.003Z,10.24
2019-03-18T05:40:39.820Z,10.73
2019-03-18T05:44:47.623Z,11.25
2019-03-18T05:48:55.741Z,12.24
2019-03-18T05:53:03.852Z,12.00
2019-03-18T05:57:12.065Z,12.89
2019-03-18T06:01:19.831Z,13.64
2019-03-18T06:05:28.006Z,14.13
2019-03-18T06:09:35.938Z,14.34
2019-03-18T06:13:44.230Z,14.40
2019-03-18T06:17:53.135Z,14.66
2019-03-18T06:22:01.277Z,14.60
2019-03-18T06:26:09.511Z,14.85
2019-03-18T06:30:17.307Z,15.60
2019-03-18T06:34:25.028Z,16.32
2019-03-18T06:38:32.734Z,15.70
2019-03-18T06:42:41.070Z,15.58
2019-03-18T06:46:48.571Z,16.44
2019-03-18T06:50:56.921Z,16.58
2019-03-18T06:55:05.103Z,17.03
2019-03-18T06:59:12.824Z,18.26
2019-03-18T07:03:21.028Z,18.26
2019-03-18T07:07:29.268Z,18.38
2019-03-18T07:11:37.040Z,18.51
2019-03-18T07:15:45.328Z,18.51
2019-03-18T07:19:53.492Z,18.46
2019-03-18T07:24:01.138Z,18.81
2019-03-18T07:28:09.206Z,18.61
2019-03-18T07:32:17.415Z,18.93
2019-03-18T07:36:25.137Z,19.49
2019-03-18T07:40:33.593Z,19.18
2019-03-18T07:44:41.366Z,19.35
2019-03-18T07:48:49.195Z,19.72
2019-03-18T07:52:57.399Z,18.94
2019-03-18T07:57:05.176Z,19.86
2019-03-18T08:01:13.525Z,20.01
2019-03-18T08:05:21.359Z,20.32
2019-03-18T08:09:29.060Z,20.81
2019-03-18T08:13:36.716Z,20.92
2019-03-18T08:17:44.880Z,20.49
2019-03-18T08:21:52.651Z,21.11
2019-03-18T08:26:00.501Z,20.80
2019-03-18T08:30:09.459Z,20.94
2019-03-18T08:34:17.173Z,21.02
2019-03-18T08:38:25.975Z,20.77
2019-03-18T08:42:34.099Z,21.10
2019-03-18T08:46:41.697Z,20.66
2019-03-18T08:50:49.873Z,21.03
2019-03-18T08:54:57.725Z,21.56
2019-03-18T08:59:05.568Z,21.19
2019-03-18T09:03:13.461Z,21.51
2019-03-18T09:07:21.782Z,22.16
2019-03-18T09:11:29.524Z,22.87
2019-03-18T09:15:37.691Z,23.18
2019-03-18T09:19:46.556Z,22.33
2019-03-18T09:23:54.842Z,22.92
2019-03-18T09:28:03.130Z,22.89
2019-03-18T09:32:10.884Z,21.36
2019-03-18T09:36:18.705Z,22.37
2019-03-18T09:40:29.151Z,22.02
2019-03-18T09:44:36.067Z,22.21
2019-03-18T09:48:43.764Z,22.68
2019-03-18T09:52:51.935Z,22.61
2019-03-18T09:56:59.583Z,22.25
2019-03-18T10:01:07.807Z,22.41
2019-03-18T10:05:15.871Z,21.82
2019-03-18T10:09:23.644Z,21.92
2019-03-18T10:13:31.685Z,22.12
2019-03-18T10:17:39.358Z,22.65
2019-03-18T10:21:47.577Z,22.93
2019-03-18T10:25:55.486Z,22.24
2019-03-18T10:30:03.399Z,22.21
2019-03-18T10:34:11.642Z,22.95
2019-03-18T10:38:19.884Z,22.86
2019-03-18T10:42:27.542Z,22.70
2019-03-18T10:46:35.967Z,23.50
2019-03-18T10:50:44.501Z,23.54
2019-03-18T10:54:52.411Z,23.33
2019-03-18T10:59:00.431Z,22.66
2019-03-18T11:03:08.438Z,22.86
2019-03-18T11:07:16.157Z,22.68
2019-03-18T11:11:23.858Z,22.42
2019-03-18T11:15:31.759Z,22.30
2019-03-18T11:19:39.571Z,22.15
2019-03-18T11:23:47.794Z,22.54
2019-03-18T11:27:55.492Z,22.40
2019-03-18T11:32:03.824Z,22.47
2019-03-18T11:36:11.958Z,22.50
2019-03-18T11:40:19.869Z,21.27
2019-03-18T11:44:27.707Z,20.92
2019-03-18T11:48:37.323Z,20.77
2019-03-18T11:52:45.395Z,19.85
2019-03-18T11:56:53.669Z,19.89
2019-03-18T12:01:01.671Z,20.38
2019-03-18T12:05:11.760Z,21.15
2019-03-18T12:09:19.659Z,20.53
2019-03-18T12:13:27.771Z,19.58
2019-03-18T12:17:35.570Z,19.13
2019-03-18T12:21:43.807Z,18.89
2019-03-18T12:25:51.339Z,19.43
2019-03-18T12:29:59.107Z,19.96
2019-03-18T12:34:07.011Z,19.82
2019-03-18T12:38:14.933Z,18.64
2019-03-18T12:42:23.064Z,19.59
2019-03-18T12:46:31.511Z,18.81
2019-03-18T12:50:55.356Z,18.37
2019-03-18T12:54:50.153Z,19.29
2019-03-18T12:58:57.880Z,19.73
2019-03-18T13:03:05.885Z,19.47
2019-03-18T13:07:13.808Z,19.48
2019-03-18T13:11:21.669Z,20.18
2019-03-18T13:15:30.677Z,19.66
2019-03-18T13:19:38.771Z,19.11
2019-03-18T13:23:46.371Z,18.99
2019-03-18T13:27:55.099Z,19.61
2019-03-18T13:32:03.487Z,19.20
2019-03-18T13:36:11.179Z,19.39
2019-03-18T13:40:19.051Z,19.48
2019-03-18T13:44:27.368Z,19.08
2019-03-18T13:48:34.978Z,19.14
2019-03-18T13:52:43.190Z,19.14
2019-03-18T13:56:52.022Z,19.26
2019-03-18T14:01:00.348Z,19.35
2019-03-18T14:05:08.705Z,19.12
2019-03-18T14:09:16.376Z,18.97
2019-03-18T14:13:24.617Z,18.92
2019-03-18T14:17:32.607Z,19.16
2019-03-18T14:21:40.319Z,18.90
2019-03-18T14:25:47.866Z,18.71
2019-03-18T14:29:55.529Z,18.76
2019-03-18T14:34:03.141Z,18.76
2019-03-18T14:38:10.844Z,18.18
2019-03-18T14:42:18.593Z,17.87
2019-03-18T14:46:26.168Z,17.92
2019-03-18T14:50:34.273Z,18.01
2019-03-18T14:54:41.879Z,18.18
2019-03-18T14:58:49.498Z,17.66
2019-03-18T15:02:57.734Z,17.44
2019-03-18T15:07:05.603Z,17.51
2019-03-18T15:11:13.268Z,17.32
2019-03-18T15:15:21.568Z,17.08
2019-03-18T15:19:29.264Z,16.59
2019-03-18T15:23:37.263Z,16.53
2019-03-18T15:27:45.273Z,16.45
2019-03-18T15:31:52.897Z,16.33
2019-03-18T15:36:01.010Z,16.09
2019-03-18T15:40:09.325Z,16.05
2019-03-18T15:44:17.126Z,15.93
2019-03-18T15:48:25.043Z,15.98
2019-03-18T15:52:32.756Z,15.64
2019-03-18T15:56:40.470Z,15.35
2019-03-18T16:00:48.779Z,15.67
2019-03-18T16:04:56.485Z,15.90
2019-03-18T16:09:06.039Z,15.69
2019-03-18T16:13:13.937Z,15.57
2019-03-18T16:17:21.562Z,15.25
2019-03-18T16:21:29.679Z,15.27
2019-03-18T16:25:38.401Z,15.04
2019-03-18T16:29:46.235Z,14.96
2019-03-18T16:33:54.448Z,14.83
2019-03-18T16:38:02.231Z,14.61
2019-03-18T16:42:10.050Z,14.45
2019-03-18T16:46:17.984Z,14.56
2019-03-18T16:50:26.151Z,14.47
2019-03-18T16:54:33.810Z,14.43
2019-03-18T16:58:42.102Z,14.42
2019-03-18T17:02:50.035Z,13.92
2019-03-18T17:06:57.835Z,14.11
2019-03-18T17:11:05.744Z,14.34
2019-03-18T17:15:13.801Z,14.00
2019-03-18T17:19:22.603Z,13.83
2019-03-18T17:23:30.522Z,13.71
2019-03-18T17:27:38.236Z,13.64
2019-03-18T17:31:46.455Z,13.93
2019-03-18T17:35:54.158Z,13.51
2019-03-18T17:40:01.903Z,13.50
2019-03-18T17:44:09.605Z,13.60
2019-03-18T17:48:18.898Z,13.52
2019-03-18T17:52:26.635Z,13.59
2019-03-18T17:56:34.753Z,13.66
2019-03-18T18:00:46.029Z,13.68
2019-03-18T18:05:02.958Z,13.33
2019-03-18T18:09:04.166Z,13.47
2019-03-18T18:13:12.111Z,13.45
2019-03-18T18:17:19.975Z,13.52
2019-03-18T18:21:28.047Z,13.30
2019-03-18T18:25:35.773Z,13.22
2019-03-18T18:29:44.170Z,13.30
2019-03-18T18:33:52.717Z,12.94
2019-03-18T18:38:00.506Z,13.13
2019-03-18T18:42:08.848Z,13.02
2019-03-18T18:46:16.653Z,12.79
2019-03-18T18:50:24.657Z,12.59
2019-03-18T18:54:32.785Z,12.56
2019-03-18T18:58:40.505Z,12.83
2019-03-18T19:02:48.619Z,12.38
2019-03-18T19:06:56.925Z,12.33
2019-03-18T19:11:04.735Z,12.28
2019-03-18T19:15:17.809Z,12.31
2019-03-18T19:19:25.564Z,12.35
2019-03-18T19:23:37.958Z,12.15
2019-03-18T19:27:43.665Z,11.98
2019-03-18T19:31:51.378Z,12.00
2019-03-18T19:35:59.692Z,11.88
2019-03-18T19:40:08.763Z,11.98
2019-03-18T19:44:16.543Z,11.83
2019-03-18T19:48:25.123Z,11.75
2019-03-18T19:52:33.290Z,11.76
2019-03-18T19:56:40.902Z,11.89
2019-03-18T20:00:49.746Z,11.64
2019-03-18T20:04:57.442Z,11.69
2019-03-18T20:09:06.641Z,11.57
2019-03-18T20:13:14.688Z,11.80
2019-03-18T20:17:23.417Z,11.76
2019-03-18T20:21:31.247Z,11.72
2019-03-18T20:25:39.052Z,11.67
2019-03-18T20:29:46.752Z,11.38
2019-03-18T20:33:54.559Z,11.41
2019-03-18T20:38:02.880Z,11.33
2019-03-18T20:42:10.600Z,11.18
2019-03-18T20:46:18.698Z,11.33
2019-03-18T20:50:26.623Z,11.11
2019-03-18T20:54:34.535Z,11.24
2019-03-18T20:58:42.433Z,11.33
2019-03-18T21:02:50.255Z,11.42
2019-03-18T21:06:59.768Z,11.30
2019-03-18T21:11:07.504Z,11.17
2019-03-18T21:15:15.427Z,11.23
2019-03-18T21:19:23.043Z,11.23
2019-03-18T21:23:30.938Z,11.15
2019-03-18T21:27:38.746Z,11.09
2019-03-18T21:31:46.866Z,11.07
2019-03-18T21:35:55.956Z,10.70
2019-03-18T21:40:03.821Z,10.48
2019-03-18T21:44:11.933Z,10.56
2019-03-18T21:48:20.061Z,10.55
2019-03-18T21:52:27.665Z,10.48
2019-03-18T21:56:35.786Z,10.59
2019-03-18T22:00:44.309Z,10.41
2019-03-18T22:04:51.749Z,10.10
2019-03-18T22:08:59.925Z,10.06
2019-03-18T22:13:07.657Z,9.88
2019-03-18T22:17:15.333Z,9.55
2019-03-18T22:21:23.654Z,10.00
2019-03-18T22:25:31.363Z,10.08
2019-03-18T22:29:39.482Z,10.08
2019-03-18T22:33:48.838Z,9.97
2019-03-18T22:37:56.533Z,9.45
2019-03-18T22:42:04.876Z,9.59
2019-03-18T22:46:12.772Z,9.54
2019-03-18T22:50:22.006Z,9.34
2019-03-18T22:54:30.313Z,9.66
2019-03-18T22:58:38.487Z,9.62
2019-03-18T23:02:46.146Z,9.54
2019-03-18T23:06:54.279Z,9.73
2019-03-18T23:11:02.388Z,10.01
2019-03-18T23:15:10.119Z,10.23
2019-03-18T23:19:20.882Z,10.33
2019-03-18T23:23:27.779Z,10.16
2019-03-18T23:27:35.383Z,10.20
2019-03-18T23:31:43.017Z,10.34
2019-03-18T23:35:50.805Z,10.09
2019-03-18T23:39:58.898Z,10.24
2019-03-18T23:44:06.827Z,10.34
2019-03-18T23:48:14.360Z,10.09
2019-03-18T23:52:23.004Z,10.18
2019-03-18T23:56:31.257Z,10.23
